createdAt,value
2022-10-09T00:03:12.985Z,9.50
2022-10-09T00:06:54.812Z,9.40
2022-10-09T00:10:45.438Z,9.30
2022-10-09T00:14:27.311Z,9.30
2022-10-09T00:18:11.066Z,9.20
2022-10-09T00:21:53.106Z,9.10
2022-10-09T00:25:38.621Z,9.10
2022-10-09T00:29:20.480Z,9.00
2022-10-09T00:33:02.286Z,8.90
2022-10-09T00:36:44.204Z,8.90
2022-10-09T00:40:26.060Z,8.80
2022-10-09T00:44:45.762Z,8.70
2022-10-09T00:48:27.863Z,8.70
2022-10-09T00:52:09.727Z,8.60
2022-10-09T00:55:52.417Z,8.60
2022-10-09T00:59:34.464Z,8.50
2022-10-09T01:03:16.371Z,8.40
2022-10-09T01:07:03.959Z,8.40
2022-10-09T01:11:01.450Z,8.30
2022-10-09T01:15:08.508Z,8.30
2022-10-09T01:18:50.202Z,8.20
2022-10-09T01:23:09.563Z,8.20
2022-10-09T01:27:16.004Z,8.10
2022-10-09T01:31:02.697Z,8.00
2022-10-09T01:34:46.173Z,7.90
2022-10-09T01:38:28.992Z,7.90
2022-10-09T01:42:13.772Z,7.80
2022-10-09T01:46:31.951Z,7.80
2022-10-09T01:50:34.628Z,7.70
2022-10-09T01:54:27.403Z,7.70
2022-10-09T01:58:32.383Z,7.60
2022-10-09T02:02:14.736Z,7.60
2022-10-09T02:05:57.894Z,7.60
2022-10-09T02:09:40.984Z,7.50
2022-10-09T02:13:23.393Z,7.50
2022-10-09T02:17:14.651Z,7.40
2022-10-09T02:21:01.257Z,7.40
2022-10-09T02:24:44.334Z,7.40
2022-10-09T02:28:26.425Z,7.40
2022-10-09T02:32:08.695Z,7.40
2022-10-09T02:35:50.573Z,7.30
2022-10-09T02:39:32.461Z,7.30
2022-10-09T02:43:14.275Z,7.30
2022-10-09T02:46:56.183Z,7.30
2022-10-09T02:50:38.223Z,7.30
2022-10-09T02:54:20.132Z,7.30
2022-10-09T02:58:02.355Z,7.20
2022-10-09T03:01:45.188Z,7.20
2022-10-09T03:05:27.048Z,7.10
2022-10-09T03:09:09.052Z,7.10
2022-10-09T03:12:51.361Z,7.10
2022-10-09T03:16:33.639Z,7.00
2022-10-09T03:20:15.672Z,7.00
2022-10-09T03:23:57.523Z,7.00
2022-10-09T03:27:39.439Z,7.00
2022-10-09T03:31:53.363Z,7.00
2022-10-09T03:35:25.794Z,7.00
2022-10-09T03:39:07.966Z,6.90
2022-10-09T03:42:50.177Z,6.90
2022-10-09T03:46:32.450Z,6.90
2022-10-09T03:50:14.328Z,6.90
2022-10-09T03:53:56.183Z,6.80
2022-10-09T03:57:38.150Z,6.80
2022-10-09T04:01:20.053Z,6.70
2022-10-09T04:05:01.904Z,6.70
2022-10-09T04:08:43.707Z,6.60
2022-10-09T04:12:25.600Z,6.60
2022-10-09T04:16:12.575Z,6.50
2022-10-09T04:19:54.548Z,6.50
2022-10-09T04:23:36.402Z,6.40
2022-10-09T04:27:18.397Z,6.40
2022-10-09T04:31:01.762Z,6.40
2022-10-09T04:34:43.708Z,6.30
2022-10-09T04:38:25.649Z,6.30
2022-10-09T04:42:07.763Z,6.30
2022-10-09T04:45:49.664Z,6.30
2022-10-09T04:49:31.721Z,6.30
2022-10-09T04:53:13.923Z,6.30
2022-10-09T04:56:55.757Z,6.30
2022-10-09T05:00:42.764Z,6.20
2022-10-09T05:04:24.766Z,6.20
2022-10-09T05:08:06.653Z,6.20
2022-10-09T05:11:48.523Z,6.20
2022-10-09T05:15:30.641Z,6.20
2022-10-09T05:19:12.478Z,6.10
2022-10-09T05:22:54.284Z,6.10
2022-10-09T05:26:36.119Z,6.10
2022-10-09T05:30:18.048Z,6.10
2022-10-09T05:34:01.846Z,6.10
2022-10-09T05:37:46.870Z,6.10
2022-10-09T05:41:32.388Z,6.10
2022-10-09T05:45:14.377Z,6.10
2022-10-09T05:49:01.922Z,6.10
2022-10-09T05:52:43.725Z,6.10
2022-10-09T05:56:38.872Z,6.20
2022-10-09T06:00:20.732Z,6.20
2022-10-09T06:04:03.858Z,6.20
2022-10-09T06:07:47.152Z,6.20
2022-10-09T06:11:31.893Z,6.30
2022-10-09T06:15:14.376Z,6.30
2022-10-09T06:18:56.903Z,6.30
2022-10-09T06:22:38.753Z,6.30
2022-10-09T06:26:21.903Z,6.40
2022-10-09T06:30:04.077Z,6.40
2022-10-09T06:33:47.613Z,6.50
2022-10-09T06:37:29.435Z,6.60
2022-10-09T06:41:13.664Z,6.60
2022-10-09T06:44:55.511Z,6.60
2022-10-09T06:48:39.274Z,6.60
2022-10-09T06:52:21.100Z,6.60
2022-10-09T06:56:03.471Z,6.60
2022-10-09T06:59:45.812Z,6.60
2022-10-09T07:03:27.643Z,6.60
2022-10-09T07:07:09.695Z,6.70
2022-10-09T07:10:51.474Z,6.70
2022-10-09T07:14:33.319Z,6.70
2022-10-09T07:18:16.247Z,6.80
2022-10-09T07:21:58.065Z,6.80
2022-10-09T07:25:39.902Z,6.90
2022-10-09T07:29:21.728Z,6.90
2022-10-09T07:33:03.782Z,6.90
2022-10-09T07:36:45.600Z,7.00
2022-10-09T07:40:27.408Z,7.00
2022-10-09T07:44:10.484Z,7.00
2022-10-09T07:47:52.274Z,7.10
2022-10-09T07:51:34.147Z,7.20
2022-10-09T07:55:16.031Z,7.30
2022-10-09T07:59:00.453Z,7.40
2022-10-09T08:02:42.511Z,7.50
2022-10-09T08:06:24.891Z,7.50
2022-10-09T08:10:07.209Z,7.60
2022-10-09T08:13:50.095Z,7.70
2022-10-09T08:17:31.967Z,7.80
2022-10-09T08:21:16.465Z,7.90
2022-10-09T08:24:58.273Z,8.10
2022-10-09T08:28:40.228Z,8.50
2022-10-09T08:32:22.119Z,9.00
2022-10-09T08:36:08.425Z,9.50
2022-10-09T08:39:50.291Z,9.90
2022-10-09T08:43:39.999Z,10.30
2022-10-09T08:47:21.797Z,10.60
2022-10-09T08:51:05.954Z,10.90
2022-10-09T08:54:48.221Z,11.30
2022-10-09T08:58:34.411Z,11.60
2022-10-09T09:02:22.129Z,11.90
2022-10-09T09:06:10.826Z,12.20
2022-10-09T09:10:10.723Z,12.40
2022-10-09T09:14:00.949Z,12.60
2022-10-09T09:18:18.055Z,12.90
2022-10-09T09:22:00.213Z,13.20
2022-10-09T09:25:44.122Z,13.60
2022-10-09T09:29:26.927Z,14.00
2022-10-09T09:33:11.776Z,14.30
2022-10-09T09:36:59.239Z,14.70
2022-10-09T09:40:45.855Z,15.10
2022-10-09T09:44:31.751Z,15.50
2022-10-09T09:48:39.243Z,15.80
2022-10-09T09:52:21.302Z,16.30
2022-10-09T09:56:03.897Z,17.00
2022-10-09T09:59:45.834Z,17.80
2022-10-09T10:03:28.311Z,18.50
2022-10-09T10:07:10.130Z,19.10
2022-10-09T10:10:54.762Z,19.90
2022-10-09T10:14:36.864Z,20.40
2022-10-09T10:18:20.475Z,21.00
2022-10-09T10:22:20.524Z,21.20
2022-10-09T10:26:08.683Z,21.10
2022-10-09T10:29:56.048Z,20.80
2022-10-09T10:33:38.939Z,20.40
2022-10-09T10:37:46.781Z,20.30
2022-10-09T10:41:37.998Z,20.50
2022-10-09T10:45:33.627Z,21.00
2022-10-09T10:49:22.033Z,21.40
2022-10-09T10:53:06.219Z,21.90
2022-10-09T10:57:15.102Z,22.60
2022-10-09T11:01:24.993Z,23.70
2022-10-09T11:05:27.658Z,24.60
2022-10-09T11:09:40.992Z,24.90
2022-10-09T11:13:33.198Z,24.40
2022-10-09T11:17:38.731Z,23.70
2022-10-09T11:21:37.894Z,23.20
2022-10-09T11:25:42.999Z,22.60
2022-10-09T11:29:37.579Z,22.10
2022-10-09T11:33:45.803Z,21.90
2022-10-09T11:37:34.978Z,21.70
2022-10-09T11:41:17.074Z,21.30
2022-10-09T11:45:17.363Z,20.90
2022-10-09T11:49:17.857Z,20.70
2022-10-09T11:53:09.119Z,20.50
2022-10-09T11:56:59.630Z,20.30
2022-10-09T12:00:42.788Z,20.30
2022-10-09T12:04:50.154Z,20.20
2022-10-09T12:08:29.655Z,20.20
2022-10-09T12:12:17.558Z,20.30
2022-10-09T12:16:00.151Z,20.40
2022-10-09T12:19:42.723Z,20.70
2022-10-09T12:23:31.717Z,21.10
2022-10-09T12:27:23.838Z,21.40
2022-10-09T12:31:17.327Z,21.30
2022-10-09T12:35:01.091Z,21.60
2022-10-09T12:38:43.473Z,22.00
2022-10-09T12:42:25.459Z,22.30
2022-10-09T12:46:07.378Z,22.50
2022-10-09T12:50:22.911Z,22.60
2022-10-09T12:54:10.055Z,22.50
2022-10-09T12:57:52.827Z,22.70
2022-10-09T13:01:35.682Z,22.80
2022-10-09T13:05:18.103Z,23.00
2022-10-09T13:09:04.156Z,23.80
2022-10-09T13:12:55.497Z,24.40
2022-10-09T13:16:47.610Z,24.70
2022-10-09T13:20:32.346Z,24.70
2022-10-09T13:24:14.257Z,24.80
2022-10-09T13:27:57.434Z,24.60
2022-10-09T13:31:43.480Z,24.60
2022-10-09T13:35:25.451Z,24.80
2022-10-09T13:39:07.324Z,24.70
2022-10-09T13:43:00.268Z,24.50
2022-10-09T13:46:42.108Z,24.50
2022-10-09T13:50:24.048Z,25.10
2022-10-09T13:54:05.928Z,25.70
2022-10-09T13:57:48.059Z,26.10
2022-10-09T14:01:30.242Z,26.40
2022-10-09T14:05:12.183Z,25.70
2022-10-09T14:08:54.025Z,24.90
2022-10-09T14:12:35.879Z,24.20
2022-10-09T14:16:17.743Z,23.80
2022-10-09T14:19:59.576Z,23.40
2022-10-09T14:23:41.488Z,23.40
2022-10-09T14:27:23.644Z,23.60
2022-10-09T14:31:07.408Z,23.70
2022-10-09T14:34:49.245Z,23.50
2022-10-09T14:38:31.050Z,23.50
2022-10-09T14:42:12.983Z,23.30
2022-10-09T14:46:09.243Z,23.00
2022-10-09T14:49:50.967Z,22.70
2022-10-09T14:53:33.782Z,22.50
2022-10-09T14:57:16.588Z,22.20
2022-10-09T15:00:58.837Z,21.90
2022-10-09T15:04:40.661Z,21.60
2022-10-09T15:08:22.494Z,21.40
2022-10-09T15:12:04.368Z,21.10
2022-10-09T15:15:46.375Z,20.80
2022-10-09T15:19:28.186Z,20.80
2022-10-09T15:23:09.980Z,20.70
2022-10-09T15:26:51.788Z,20.70
2022-10-09T15:30:33.600Z,20.60
2022-10-09T15:34:18.375Z,20.50
2022-10-09T15:38:00.163Z,20.40
2022-10-09T15:41:43.360Z,20.70
2022-10-09T15:45:25.179Z,20.70
2022-10-09T15:49:08.090Z,20.60
2022-10-09T15:52:50.177Z,20.20
2022-10-09T15:56:35.970Z,19.80
2022-10-09T16:00:20.694Z,19.60
2022-10-09T16:04:02.516Z,19.40
2022-10-09T16:07:44.388Z,19.30
2022-10-09T16:11:27.077Z,19.10
2022-10-09T16:15:09.384Z,18.90
2022-10-09T16:18:52.215Z,18.80
2022-10-09T16:22:34.087Z,18.70
2022-10-09T16:26:19.890Z,18.60
2022-10-09T16:30:02.603Z,18.40
2022-10-09T16:33:44.399Z,18.20
2022-10-09T16:37:26.270Z,18.20
2022-10-09T16:41:13.618Z,18.00
2022-10-09T16:44:55.474Z,18.00
2022-10-09T16:48:37.397Z,17.80
2022-10-09T16:52:19.350Z,17.70
2022-10-09T16:56:13.383Z,17.60
2022-10-09T16:59:55.307Z,17.60
2022-10-09T17:03:40.393Z,17.50
2022-10-09T17:07:23.185Z,17.40
2022-10-09T17:11:13.323Z,17.30
2022-10-09T17:14:55.629Z,17.20
2022-10-09T17:18:38.099Z,17.00
2022-10-09T17:22:19.969Z,17.00
2022-10-09T17:26:10.015Z,16.80
2022-10-09T17:29:51.926Z,16.70
2022-10-09T17:33:34.594Z,16.60
2022-10-09T17:37:16.529Z,16.60
2022-10-09T17:41:00.120Z,16.50
2022-10-09T17:44:42.787Z,16.40
2022-10-09T17:48:24.660Z,16.40
2022-10-09T17:52:06.637Z,16.30
2022-10-09T17:55:49.807Z,16.20
2022-10-09T17:59:31.770Z,16.10
2022-10-09T18:03:14.621Z,16.00
2022-10-09T18:06:56.450Z,16.00
2022-10-09T18:10:38.630Z,15.90
2022-10-09T18:14:20.483Z,15.80
2022-10-09T18:18:02.310Z,15.70
2022-10-09T18:21:47.175Z,15.70
2022-10-09T18:25:29.068Z,15.60
2022-10-09T18:29:10.959Z,15.50
2022-10-09T18:32:53.013Z,15.50
2022-10-09T18:36:35.963Z,15.40
2022-10-09T18:40:19.385Z,15.40
2022-10-09T18:44:01.638Z,15.40
2022-10-09T18:47:44.573Z,15.40
2022-10-09T18:51:28.637Z,15.30
2022-10-09T18:55:14.881Z,15.30
2022-10-09T18:58:57.869Z,15.20
2022-10-09T19:06:23.323Z,15.20
2022-10-09T19:10:06.957Z,15.10
2022-10-09T19:13:49.150Z,15.10
2022-10-09T19:17:31.016Z,15.00
2022-10-09T19:21:14.963Z,15.00
2022-10-09T19:24:56.778Z,14.90
2022-10-09T19:28:39.400Z,14.90
2022-10-09T19:32:23.923Z,14.90
2022-10-09T19:36:07.136Z,14.90
2022-10-09T19:39:49.156Z,14.90
2022-10-09T19:43:32.014Z,14.90
2022-10-09T19:47:15.761Z,14.80
2022-10-09T19:50:57.651Z,14.80
2022-10-09T19:54:40.263Z,14.80
2022-10-09T19:58:22.148Z,14.80
2022-10-09T20:02:04.311Z,14.80
2022-10-09T20:05:46.249Z,14.70
2022-10-09T20:09:28.137Z,14.70
2022-10-09T20:13:09.985Z,14.60
2022-10-09T20:16:52.102Z,14.60
2022-10-09T20:20:36.158Z,14.60
2022-10-09T20:24:18.052Z,14.50
2022-10-09T20:27:59.997Z,14.50
2022-10-09T20:31:42.413Z,14.50
2022-10-09T20:35:24.891Z,14.50
2022-10-09T20:39:11.038Z,14.60
2022-10-09T20:42:53.487Z,14.60
2022-10-09T20:46:38.401Z,14.60
2022-10-09T20:54:28.213Z,14.70
2022-10-09T20:58:10.171Z,14.70
2022-10-09T21:01:52.328Z,14.70
2022-10-09T21:05:39.593Z,14.80
2022-10-09T21:09:21.441Z,14.80
2022-10-09T21:13:03.309Z,14.80
2022-10-09T21:16:45.268Z,14.80
2022-10-09T21:20:27.132Z,14.80
2022-10-09T21:24:09.021Z,14.80
2022-10-09T21:27:50.924Z,14.80
2022-10-09T21:31:33.306Z,14.80
2022-10-09T21:35:15.315Z,14.80
2022-10-09T21:38:57.257Z,14.80
2022-10-09T21:42:39.067Z,14.80
2022-10-09T21:46:21.530Z,14.80
2022-10-09T21:50:03.549Z,14.80
2022-10-09T21:53:46.092Z,14.80
2022-10-09T21:57:28.082Z,14.80
2022-10-09T22:01:10.428Z,14.80
2022-10-09T22:04:52.309Z,14.80
2022-10-09T22:08:34.838Z,14.80
2022-10-09T22:12:16.739Z,14.90
2022-10-09T22:15:58.627Z,14.90
2022-10-09T22:19:40.725Z,14.90
2022-10-09T22:23:22.628Z,14.90
2022-10-09T22:27:04.574Z,14.90
2022-10-09T22:30:46.466Z,14.90
2022-10-09T22:34:28.335Z,14.90
2022-10-09T22:38:10.134Z,15.00
2022-10-09T22:41:51.960Z,15.00
2022-10-09T22:45:37.664Z,15.00
2022-10-09T22:49:19.571Z,15.00
2022-10-09T22:53:01.445Z,15.00
2022-10-09T22:56:46.577Z,15.00
2022-10-09T23:00:28.509Z,15.00
2022-10-09T23:04:14.609Z,15.10
2022-10-09T23:07:56.439Z,15.10
2022-10-09T23:11:38.320Z,15.10
2022-10-09T23:15:20.493Z,15.10
2022-10-09T23:19:06.755Z,15.10
2022-10-09T23:22:49.334Z,15.10
2022-10-09T23:26:33.358Z,15.10
2022-10-09T23:30:15.372Z,15.20
2022-10-09T23:33:57.725Z,15.10
2022-10-09T23:37:39.655Z,15.10
2022-10-09T23:41:23.765Z,15.10
2022-10-09T23:45:06.241Z,15.00
2022-10-09T23:48:49.313Z,15.00
2022-10-09T23:52:31.143Z,14.90
2022-10-09T23:56:28.443Z,14.90
